Time;durP1;ratioP1;P1;durP2;ratioP2;P2;SDS_P1;SDS_P2;PMS_P1;PMS_P2;Temp;Humidity;BMP_temperature;BMP_pressure;BME280_temperature;BME280_humidity;BME280_pressure;Samples;Min_cycle;Max_cycle;Signal;HPM_P1;HPM_P2
2021/06/20 00:01:08;;;;;;;19.13;12.13;;;25.50;97.30;;;;;;4882211;29;20181;-89
2021/06/20 00:03:33;;;;;;;26.47;12.63;;;25.50;97.30;;;;;;4882765;29;20193;-90
2021/06/20 00:06:27;;;;;;;20.50;12.40;;;25.50;97.30;;;;;;4882235;29;20437;-88
2021/06/20 00:09:10;;;;;;;23.13;12.67;;;25.50;97.30;;;;;;4874379;29;20221;-89
2021/06/20 00:11:38;;;;;;;18.80;13.83;;;25.50;97.30;;;;;;4886115;29;20493;-89
2021/06/20 00:14:07;;;;;;;17.37;12.03;;;25.40;97.30;;;;;;4886037;29;20875;-89
2021/06/20 00:16:38;;;;;;;17.67;12.57;;;25.40;97.30;;;;;;4886499;29;20418;-89
2021/06/20 00:19:27;;;;;;;20.37;12.20;;;25.40;97.30;;;;;;4885762;29;20489;-89
2021/06/20 00:21:53;;;;;;;21.40;12.37;;;25.30;97.30;;;;;;4885372;29;20430;-89
2021/06/20 00:24:21;;;;;;;19.27;12.87;;;25.40;97.30;;;;;;4885108;29;20807;-89
2021/06/20 00:27:16;;;;;;;20.93;13.10;;;25.40;97.30;;;;;;4884403;29;20188;-90
2021/06/20 00:29:41;;;;;;;23.40;13.40;;;25.30;97.30;;;;;;4884083;29;20448;-90
2021/06/20 00:32:07;;;;;;;24.10;12.90;;;25.30;97.30;;;;;;4883591;29;20465;-88
2021/06/20 00:34:33;;;;;;;19.93;12.40;;;25.30;97.30;;;;;;4883701;29;20181;-88
2021/06/20 00:37:01;;;;;;;22.20;13.33;;;25.30;97.30;;;;;;4883526;29;20937;-89
2021/06/20 00:39:26;;;;;;;25.90;13.70;;;25.30;97.30;;;;;;4883706;29;20552;-89
2021/06/20 00:41:52;;;;;;;20.67;13.47;;;25.30;97.30;;;;;;4883289;29;20871;-89
2021/06/20 00:44:17;;;;;;;22.47;14.53;;;25.30;97.30;;;;;;4883583;29;20184;-89
2021/06/20 00:46:43;;;;;;;28.67;13.40;;;25.20;97.30;;;;;;4900274;29;20169;-87
2021/06/20 00:49:08;;;;;;;19.20;13.50;;;25.20;97.30;;;;;;4900343;29;20182;-89
2021/06/20 00:51:36;;;;;;;22.77;13.33;;;25.10;97.30;;;;;;4883239;29;20184;-88
2021/06/20 00:54:02;;;;;;;22.23;14.97;;;25.10;97.30;;;;;;4883385;29;20543;-87
2021/06/20 00:56:28;;;;;;;18.53;14.53;;;25.00;97.30;;;;;;4899823;29;20932;-89
2021/06/20 00:59:01;;;;;;;24.80;15.80;;;25.00;97.30;;;;;;4884489;29;20197;-89
2021/06/20 01:01:31;;;;;;;25.03;15.10;;;25.00;97.30;;;;;;4883277;29;20429;-90
2021/06/20 01:03:57;;;;;;;28.53;15.80;;;25.00;97.30;;;;;;4883155;29;20998;-89
2021/06/20 01:06:23;;;;;;;25.63;16.43;;;25.00;97.30;;;;;;4883399;29;20422;-88
2021/06/20 01:08:49;;;;;;;23.93;15.60;;;25.00;97.30;;;;;;4900542;29;20432;-90
2021/06/20 01:11:15;;;;;;;20.40;15.80;;;25.00;97.30;;;;;;4884003;29;20429;-90
2021/06/20 01:13:43;;;;;;;23.63;15.93;;;25.00;97.30;;;;;;4883922;29;20213;-90
2021/06/20 01:16:08;;;;;;;22.57;15.53;;;25.00;97.30;;;;;;4883760;29;20181;-89
2021/06/20 01:18:36;;;;;;;20.90;15.87;;;25.00;97.30;;;;;;4905722;29;20960;-90
2021/06/20 01:21:02;;;;;;;32.00;17.00;;;25.00;97.30;;;;;;4902557;29;20177;-90
2021/06/20 01:23:28;;;;;;;31.20;16.73;;;24.90;97.30;;;;;;4903111;29;20809;-90
2021/06/20 01:25:55;;;;;;;25.00;16.93;;;24.90;97.30;;;;;;4902579;29;20431;-90
2021/06/20 01:28:26;;;;;;;23.50;15.57;;;24.90;97.30;;;;;;4902736;29;20260;-90
2021/06/20 01:30:58;;;;;;;23.17;17.67;;;24.90;97.30;;;;;;4902437;29;20532;-91
2021/06/20 01:33:24;;;;;;;24.10;17.50;;;24.80;97.30;;;;;;4903317;29;20492;-91
2021/06/20 01:35:52;;;;;;;26.30;19.30;;;24.70;97.30;;;;;;4903765;29;20953;-91
2021/06/20 01:38:18;;;;;;;27.43;18.97;;;24.70;97.30;;;;;;4903281;29;20589;-91
2021/06/20 01:40:44;;;;;;;26.57;18.00;;;24.60;97.30;;;;;;4902938;29;20421;-89
2021/06/20 01:43:10;;;;;;;28.13;18.07;;;24.50;97.30;;;;;;4903736;29;20288;-90
2021/06/20 01:45:37;;;;;;;28.77;18.93;;;24.40;97.30;;;;;;4903573;29;20546;-88
2021/06/20 01:48:04;;;;;;;36.23;19.53;;;24.40;97.30;;;;;;4903333;29;20428;-89
2021/06/20 01:50:33;;;;;;;26.43;18.03;;;24.30;97.30;;;;;;4902991;29;20421;-89
2021/06/20 01:53:09;;;;;;;26.67;17.53;;;24.40;97.30;;;;;;4902449;29;20444;-88
2021/06/20 01:55:36;;;;;;;27.47;17.53;;;24.40;97.30;;;;;;4902850;29;20478;-89
2021/06/20 01:58:05;;;;;;;25.33;18.00;;;24.40;97.30;;;;;;4919065;29;20460;-88
2021/06/20 02:00:32;;;;;;;24.30;17.67;;;24.40;97.30;;;;;;4902763;29;20801;-91
2021/06/20 02:03:12;;;;;;;30.10;20.13;;;24.40;97.30;;;;;;4919058;29;20897;-89
2021/06/20 02:05:39;;;;;;;32.77;17.47;;;24.50;97.30;;;;;;4901684;29;20462;-88
2021/06/20 02:08:05;;;;;;;22.23;18.80;;;24.50;97.30;;;;;;4901560;29;20423;-88
2021/06/20 02:10:33;;;;;;;26.80;17.87;;;24.50;97.30;;;;;;4901139;29;20432;-88
2021/06/20 02:12:59;;;;;;;22.80;17.77;;;24.50;97.30;;;;;;4900714;29;20254;-89
2021/06/20 02:15:25;;;;;;;28.87;18.60;;;24.50;97.30;;;;;;4917363;29;20443;-90
2021/06/20 02:17:51;;;;;;;21.57;17.13;;;24.50;97.30;;;;;;4900550;29;20208;-89
2021/06/20 02:20:19;;;;;;;28.00;18.90;;;24.50;97.30;;;;;;4900476;29;20210;-89
2021/06/20 02:22:47;;;;;;;21.23;16.63;;;24.50;97.30;;;;;;4900429;29;20216;-89
2021/06/20 02:25:16;;;;;;;29.70;17.97;;;24.50;97.30;;;;;;4917281;29;20412;-89
2021/06/20 02:27:45;;;;;;;31.40;19.27;;;24.50;97.30;;;;;;4900465;29;20425;-88
2021/06/20 02:30:14;;;;;;;25.63;16.83;;;24.50;97.30;;;;;;4916965;29;20457;-88
2021/06/20 02:32:40;;;;;;;23.07;17.20;;;24.50;97.30;;;;;;4899876;29;20456;-88
2021/06/20 02:35:08;;;;;;;23.33;17.63;;;24.40;97.30;;;;;;4900316;29;20778;-88
2021/06/20 02:37:37;;;;;;;26.63;18.83;;;24.40;97.30;;;;;;4900146;29;20460;-87
2021/06/20 02:40:04;;;;;;;30.80;18.30;;;24.30;97.30;;;;;;4916712;29;21043;-89
2021/06/20 02:42:29;;;;;;;21.13;17.30;;;24.30;97.30;;;;;;4900973;29;20502;-87
2021/06/20 02:44:55;;;;;;;25.93;18.03;;;24.30;97.30;;;;;;4917110;29;20419;-89
2021/06/20 02:47:21;;;;;;;25.67;18.97;;;24.30;97.30;;;;;;4899972;29;20196;-89
2021/06/20 02:49:47;;;;;;;24.50;18.60;;;24.30;97.30;;;;;;4888328;29;20728;-88
2021/06/20 02:52:15;;;;;;;33.77;18.80;;;24.30;97.30;;;;;;4897997;29;20497;-89
2021/06/20 02:54:51;;;;;;;30.50;21.03;;;24.20;97.30;;;;;;4881837;29;20181;-88
2021/06/20 02:57:22;;;;;;;33.40;18.30;;;24.20;97.30;;;;;;4881762;29;20418;-89
2021/06/20 02:59:49;;;;;;;26.23;19.47;;;24.10;97.30;;;;;;4881612;29;20928;-89
2021/06/20 03:02:15;;;;;;;28.80;20.30;;;24.10;97.30;;;;;;4881986;29;20853;-88
2021/06/20 03:04:40;;;;;;;29.10;20.20;;;24.00;97.30;;;;;;4899007;29;20410;-89
2021/06/20 03:07:06;;;;;;;25.23;19.73;;;24.00;97.30;;;;;;4881522;29;20249;-89
2021/06/20 03:09:32;;;;;;;26.33;19.53;;;24.00;97.30;;;;;;4881592;29;20198;-87
2021/06/20 03:11:57;;;;;;;26.77;19.13;;;24.00;97.30;;;;;;4881508;29;20653;-88
2021/06/20 03:14:23;;;;;;;25.77;20.20;;;24.00;97.30;;;;;;4898123;29;20481;-88
2021/06/20 03:16:49;;;;;;;23.30;18.13;;;24.00;97.30;;;;;;4881599;29;20676;-89
2021/06/20 03:19:15;;;;;;;29.07;20.03;;;24.00;97.30;;;;;;4881457;29;20212;-90
2021/06/20 03:21:42;;;;;;;30.17;19.70;;;24.00;97.30;;;;;;4881393;29;20206;-89
2021/06/20 03:24:08;;;;;;;37.87;20.67;;;23.90;97.30;;;;;;4882247;29;20956;-89
2021/06/20 03:26:34;;;;;;;28.33;19.40;;;23.90;97.30;;;;;;4882572;29;20422;-90
2021/06/20 03:29:00;;;;;;;24.23;19.00;;;23.90;97.30;;;;;;4882988;29;20217;-90
2021/06/20 03:31:26;;;;;;;22.60;18.87;;;23.80;97.30;;;;;;4882555;29;20470;-89
2021/06/20 03:33:57;;;;;;;27.37;20.97;;;23.90;97.30;;;;;;4882693;29;20201;-89
2021/06/20 03:36:23;;;;;;;32.77;20.30;;;23.80;97.30;;;;;;4882583;29;20426;-89
2021/06/20 03:38:49;;;;;;;28.73;19.93;;;23.90;97.30;;;;;;4882627;29;20473;-89
2021/06/20 03:41:46;;;;;;;;;;;;;;;;;;;;;
2021/06/20 03:45:08;;;;;;;26.57;20.27;;;23.90;97.30;;;;;;4902921;29;20189;-89
2021/06/20 03:47:34;;;;;;;26.17;19.70;;;23.90;97.30;;;;;;4856832;29;20417;-86
2021/06/20 03:50:00;;;;;;;27.97;18.70;;;23.90;97.30;;;;;;4885213;29;20432;-89
2021/06/20 03:52:25;;;;;;;25.17;19.20;;;24.00;97.30;;;;;;4884904;29;20433;-89
2021/06/20 03:54:52;;;;;;;22.77;18.00;;;24.00;97.30;;;;;;4884343;29;20185;-88
2021/06/20 03:57:21;;;;;;;26.93;19.30;;;24.00;97.30;;;;;;4884279;29;20216;-87
2021/06/20 03:59:47;;;;;;;26.57;19.27;;;24.00;97.30;;;;;;4900863;29;20477;-89
2021/06/20 04:02:13;;;;;;;22.53;18.50;;;24.00;97.30;;;;;;4884341;29;20449;-89
2021/06/20 04:04:40;;;;;;;28.57;19.47;;;24.00;97.30;;;;;;4883762;29;20477;-88
2021/06/20 04:07:06;;;;;;;23.27;20.20;;;24.00;97.30;;;;;;4883933;29;20186;-89
2021/06/20 04:09:32;;;;;;;25.80;20.73;;;24.00;97.30;;;;;;4894775;29;20515;-88
2021/06/20 04:11:58;;;;;;;29.87;19.87;;;24.00;97.30;;;;;;4902491;29;20543;-89
2021/06/20 04:14:23;;;;;;;30.83;20.27;;;24.00;97.30;;;;;;4919387;29;20517;-88
2021/06/20 04:16:49;;;;;;;25.00;19.77;;;24.00;97.30;;;;;;4902469;29;20189;-88
2021/06/20 04:19:16;;;;;;;30.43;21.27;;;24.00;97.30;;;;;;4902425;29;20208;-87
2021/06/20 04:21:41;;;;;;;26.57;20.73;;;23.90;97.30;;;;;;4901757;29;20290;-89
2021/06/20 04:24:07;;;;;;;26.10;20.17;;;23.90;97.30;;;;;;4902298;29;20852;-90
2021/06/20 04:26:33;;;;;;;30.57;20.73;;;24.00;97.30;;;;;;4902111;29;20268;-89
2021/06/20 04:28:59;;;;;;;25.10;19.20;;;23.90;97.30;;;;;;4902654;29;20515;-88
2021/06/20 04:31:25;;;;;;;24.30;19.07;;;23.90;97.30;;;;;;4903016;29;20711;-88
2021/06/20 04:33:50;;;;;;;27.23;19.83;;;23.90;97.30;;;;;;4902646;29;20215;-89
2021/06/20 04:36:16;;;;;;;22.13;18.27;;;23.90;97.30;;;;;;4902776;29;20212;-88
2021/06/20 04:38:43;;;;;;;24.93;20.27;;;23.90;97.30;;;;;;4902655;29;20215;-90
2021/06/20 04:41:11;;;;;;;24.53;18.93;;;23.90;97.30;;;;;;4903108;29;20184;-88
2021/06/20 04:43:40;;;;;;;27.20;20.27;;;23.90;97.30;;;;;;4920015;29;20468;-88
2021/06/20 04:46:27;;;;;;;26.23;17.97;;;23.90;97.30;;;;;;4902808;29;20428;-89
2021/06/20 04:48:54;;;;;;;32.17;18.90;;;23.90;97.30;;;;;;4897594;29;20478;-89
2021/06/20 04:51:20;;;;;;;23.40;19.87;;;23.90;97.30;;;;;;4884651;29;20434;-89
2021/06/20 04:53:47;;;;;;;23.50;18.20;;;23.90;97.30;;;;;;4883934;29;20456;-87
2021/06/20 04:56:13;;;;;;;27.13;18.87;;;23.90;97.30;;;;;;4885051;29;20233;-90
2021/06/20 04:58:40;;;;;;;23.70;19.13;;;24.00;97.30;;;;;;4884687;29;20461;-89
2021/06/20 05:01:08;;;;;;;25.60;18.77;;;24.00;97.30;;;;;;4884114;29;20271;-89
2021/06/20 05:06:09;;;;;;;23.53;18.00;;;24.00;97.30;;;;;;1444024;27;20496;-69
2021/06/20 05:08:35;;;;;;;27.03;18.80;;;24.00;97.30;;;;;;4916423;29;20413;-68
2021/06/20 05:11:01;;;;;;;23.33;17.80;;;24.00;97.30;;;;;;4916220;29;20255;-69
2021/06/20 05:13:27;;;;;;;32.13;18.00;;;24.10;97.30;;;;;;4916626;29;20239;-69
2021/06/20 05:15:53;;;;;;;22.97;17.30;;;24.10;97.30;;;;;;4898906;29;20180;-69
2021/06/20 05:18:19;;;;;;;22.23;18.23;;;24.10;97.30;;;;;;4899021;29;20486;-69
2021/06/20 05:20:45;;;;;;;22.33;18.07;;;24.10;97.30;;;;;;4916433;29;20475;-69
2021/06/20 05:23:10;;;;;;;21.63;18.00;;;24.10;97.30;;;;;;4899143;29;20428;-68
2021/06/20 05:25:36;;;;;;;24.93;17.27;;;24.20;97.30;;;;;;4916031;29;20535;-69
2021/06/20 05:28:02;;;;;;;26.23;19.20;;;24.20;97.30;;;;;;4916324;29;20536;-69
2021/06/20 05:30:28;;;;;;;23.87;18.00;;;24.20;97.30;;;;;;4898746;29;20215;-69
2021/06/20 05:32:54;;;;;;;22.30;17.13;;;24.30;97.30;;;;;;4898427;29;21015;-68
2021/06/20 05:35:20;;;;;;;34.53;17.90;;;24.40;97.30;;;;;;4916064;29;20175;-68
2021/06/20 05:37:47;;;;;;;25.03;17.83;;;24.40;97.30;;;;;;4915754;29;20453;-68
2021/06/20 05:40:13;;;;;;;21.53;17.23;;;24.50;97.30;;;;;;4898548;29;20433;-68
2021/06/20 05:42:39;;;;;;;21.90;18.10;;;24.50;97.30;;;;;;4914931;29;20425;-68
2021/06/20 05:45:05;;;;;;;24.87;17.90;;;24.60;97.30;;;;;;4915073;29;20516;-68
2021/06/20 05:47:31;;;;;;;18.93;16.87;;;24.70;97.30;;;;;;4897398;29;20197;-70
2021/06/20 05:49:56;;;;;;;24.47;16.67;;;24.70;97.30;;;;;;4914489;29;20432;-69
2021/06/20 05:52:22;;;;;;;21.50;15.23;;;24.80;97.30;;;;;;4914529;29;20684;-69
2021/06/20 05:54:50;;;;;;;18.57;15.83;;;24.80;97.30;;;;;;4897720;29;20179;-68
2021/06/20 05:57:20;;;;;;;19.77;16.30;;;24.80;97.30;;;;;;4897909;29;20280;-68
2021/06/20 05:59:46;;;;;;;18.10;15.57;;;24.90;97.30;;;;;;4898092;29;20921;-69
2021/06/20 06:02:12;;;;;;;20.33;16.30;;;24.90;97.30;;;;;;4897729;29;20437;-70
2021/06/20 06:04:38;;;;;;;22.57;15.57;;;25.00;97.30;;;;;;4914824;29;20515;-68
2021/06/20 06:07:04;;;;;;;21.60;14.70;;;25.00;97.30;;;;;;4885401;29;20248;-68
2021/06/20 06:09:30;;;;;;;23.13;15.80;;;25.10;97.30;;;;;;4879490;29;20799;-70
2021/06/20 06:11:57;;;;;;;33.30;16.33;;;25.10;97.30;;;;;;4879150;29;20521;-69
2021/06/20 06:14:23;;;;;;;20.43;15.00;;;25.10;97.30;;;;;;4879206;29;20445;-69
2021/06/20 06:16:49;;;;;;;25.17;15.13;;;25.20;97.30;;;;;;4879034;29;20964;-70
2021/06/20 06:19:16;;;;;;;17.03;14.80;;;25.20;97.30;;;;;;4895322;29;20504;-67
2021/06/20 06:21:42;;;;;;;19.70;14.80;;;25.30;97.30;;;;;;4895685;29;20867;-69
2021/06/20 06:24:08;;;;;;;16.27;14.20;;;25.30;97.30;;;;;;4879289;29;20421;-70
2021/06/20 06:26:35;;;;;;;18.40;13.53;;;25.30;97.30;;;;;;4879261;29;20433;-72
2021/06/20 06:29:01;;;;;;;21.60;14.60;;;25.40;97.30;;;;;;4895756;29;20649;-70
2021/06/20 06:31:26;;;;;;;22.50;14.70;;;25.40;97.30;;;;;;4878972;29;20445;-69
2021/06/20 06:33:52;;;;;;;25.80;15.20;;;25.40;97.30;;;;;;4895690;29;20181;-71
2021/06/20 06:36:19;;;;;;;19.83;14.43;;;25.50;97.30;;;;;;4879103;29;20261;-69
2021/06/20 06:38:44;;;;;;;16.73;12.50;;;25.50;97.30;;;;;;4878859;29;20689;-70
2021/06/20 06:41:10;;;;;;;18.30;12.67;;;25.50;97.30;;;;;;4894360;29;20442;-69
2021/06/20 06:43:35;;;;;;;15.30;13.37;;;25.60;97.30;;;;;;4895657;29;20677;-71
2021/06/20 06:46:01;;;;;;;20.30;13.53;;;25.50;96.90;;;;;;4895635;29;20183;-70
2021/06/20 06:48:27;;;;;;;16.47;14.10;;;25.60;97.30;;;;;;4895750;29;20602;-70
2021/06/20 06:50:52;;;;;;;16.70;12.53;;;25.60;97.30;;;;;;4895539;29;20709;-70
2021/06/20 06:53:18;;;;;;;19.80;14.33;;;25.60;97.30;;;;;;4882829;29;20578;-70
2021/06/20 06:55:43;;;;;;;17.47;13.93;;;25.70;97.20;;;;;;4914459;29;20219;-69
2021/06/20 06:58:09;;;;;;;15.83;14.00;;;25.70;97.20;;;;;;4897407;29;20212;-69
2021/06/20 07:00:35;;;;;;;19.20;14.60;;;25.70;96.80;;;;;;4897366;29;20196;-70
2021/06/20 07:03:01;;;;;;;23.17;14.77;;;25.70;97.30;;;;;;4897519;29;20176;-70
2021/06/20 07:05:27;;;;;;;16.03;13.00;;;25.70;97.20;;;;;;4879710;29;20181;-69
2021/06/20 07:07:54;;;;;;;16.40;13.00;;;25.80;97.30;;;;;;4912459;29;20841;-69
2021/06/20 07:10:20;;;;;;;14.80;13.67;;;25.80;97.30;;;;;;4897537;29;20523;-69
2021/06/20 07:12:46;;;;;;;18.00;14.13;;;25.80;97.30;;;;;;4897005;29;20424;-70
2021/06/20 07:15:12;;;;;;;21.10;14.60;;;25.80;97.30;;;;;;4898060;29;20427;-70
2021/06/20 07:17:42;;;;;;;17.43;14.23;;;25.80;97.30;;;;;;4914975;29;20208;-70
2021/06/20 07:20:14;;;;;;;17.23;14.00;;;25.90;97.30;;;;;;4898618;29;20436;-69
2021/06/20 07:22:41;;;;;;;20.27;14.43;;;25.90;97.30;;;;;;4915070;29;20432;-69
2021/06/20 07:25:07;;;;;;;20.40;14.13;;;25.90;97.30;;;;;;4914459;29;21123;-70
2021/06/20 07:27:37;;;;;;;19.00;14.10;;;25.90;97.30;;;;;;4897229;29;21277;-71
2021/06/20 07:30:08;;;;;;;21.23;13.90;;;25.90;97.30;;;;;;4897374;29;21003;-69
2021/06/20 07:32:34;;;;;;;16.37;12.80;;;26.00;97.30;;;;;;4896616;29;20445;-70
2021/06/20 07:35:00;;;;;;;17.10;13.00;;;26.00;97.30;;;;;;4919069;29;20423;-70
2021/06/20 07:37:26;;;;;;;17.13;12.60;;;26.20;95.60;;;;;;4922800;29;20179;-70
2021/06/20 07:39:51;;;;;;;17.00;12.93;;;26.30;95.20;;;;;;4888800;29;20499;-71
2021/06/20 07:42:17;;;;;;;13.83;12.40;;;26.50;94.70;;;;;;4904217;29;20204;-70
2021/06/20 07:44:42;;;;;;;19.87;12.07;;;26.60;95.10;;;;;;4921595;29;20200;-70
2021/06/20 07:47:08;;;;;;;17.50;13.17;;;26.80;93.80;;;;;;4916120;29;20244;-72
2021/06/20 07:49:33;;;;;;;20.87;12.80;;;27.00;93.50;;;;;;4930589;29;20176;-70
2021/06/20 07:51:59;;;;;;;15.33;11.97;;;27.20;92.70;;;;;;4904833;29;20212;-70
2021/06/20 07:54:25;;;;;;;14.63;12.80;;;27.30;91.90;;;;;;4912542;29;20188;-71
2021/06/20 07:56:50;;;;;;;15.40;12.30;;;27.40;93.10;;;;;;4916390;29;20198;-70
2021/06/20 07:59:16;;;;;;;15.47;12.80;;;27.60;91.70;;;;;;4905298;29;20510;-72
2021/06/20 08:01:42;;;;;;;21.47;12.33;;;27.70;90.10;;;;;;4917444;29;20986;-70
2021/06/20 08:04:08;;;;;;;16.53;12.07;;;27.90;90.10;;;;;;4918549;29;20220;-70
2021/06/20 08:06:33;;;;;;;17.77;12.33;;;28.00;90.60;;;;;;4901016;29;20232;-70
2021/06/20 08:08:59;;;;;;;19.90;11.17;;;28.20;89.50;;;;;;4912222;29;20303;-71
2021/06/20 08:11:26;;;;;;;13.47;10.70;;;28.30;88.50;;;;;;4916751;29;20200;-71
2021/06/20 08:13:51;;;;;;;13.83;11.80;;;28.30;88.90;;;;;;4896397;29;20223;-70
2021/06/20 08:16:19;;;;;;;16.10;11.37;;;28.40;89.10;;;;;;4895870;29;20489;-69
2021/06/20 08:18:45;;;;;;;18.50;12.23;;;28.50;89.80;;;;;;4924247;29;20195;-70
2021/06/20 08:21:11;;;;;;;17.70;11.90;;;28.50;89.80;;;;;;4907663;29;20872;-69
2021/06/20 08:23:37;;;;;;;17.63;11.57;;;28.60;89.40;;;;;;4891350;29;20216;-70
2021/06/20 08:26:03;;;;;;;27.20;12.97;;;28.60;89.10;;;;;;4915629;29;20482;-69
2021/06/20 08:28:28;;;;;;;23.43;12.57;;;28.70;89.60;;;;;;4912289;29;20600;-70
2021/06/20 08:30:54;;;;;;;17.90;11.63;;;28.90;89.20;;;;;;4905065;29;20444;-69
2021/06/20 08:33:20;;;;;;;17.97;12.27;;;29.00;89.30;;;;;;4895589;29;20187;-70
2021/06/20 08:35:46;;;;;;;14.90;11.33;;;29.00;88.30;;;;;;4901989;29;20571;-71
2021/06/20 08:38:12;;;;;;;19.33;11.07;;;29.10;88.10;;;;;;4899573;29;20453;-69
2021/06/20 08:40:42;;;;;;;17.40;11.40;;;29.20;87.10;;;;;;4918657;29;20800;-70
2021/06/20 08:43:09;;;;;;;15.20;11.37;;;29.10;87.10;;;;;;4896810;29;20576;-71
2021/06/20 08:45:34;;;;;;;15.93;10.80;;;29.20;87.30;;;;;;4900243;29;20425;-73
2021/06/20 08:48:00;;;;;;;23.93;10.97;;;29.10;86.80;;;;;;4928595;29;20416;-72
2021/06/20 08:50:26;;;;;;;20.37;11.70;;;29.20;86.80;;;;;;4903156;29;20228;-72
2021/06/20 08:52:56;;;;;;;18.17;10.73;;;29.20;86.30;;;;;;4907616;29;20416;-74
2021/06/20 08:55:23;;;;;;;24.40;11.87;;;29.30;86.90;;;;;;4912937;29;20204;-73
2021/06/20 08:57:51;;;;;;;16.40;11.00;;;29.30;87.30;;;;;;4930454;29;20471;-73
2021/06/20 09:00:18;;;;;;;16.40;10.03;;;29.50;87.30;;;;;;4898485;29;20427;-69
2021/06/20 09:02:55;;;;;;;20.13;10.73;;;29.60;85.90;;;;;;4898478;29;20428;-71
2021/06/20 09:05:20;;;;;;;19.93;10.50;;;29.70;85.80;;;;;;4899382;29;20421;-69
2021/06/20 09:07:46;;;;;;;17.20;11.50;;;29.70;86.10;;;;;;4931004;29;20456;-69
2021/06/20 09:10:26;;;;;;;18.63;10.53;;;29.80;86.20;;;;;;4908947;29;20188;-72
2021/06/20 09:13:02;;;;;;;16.93;9.73;;;29.90;86.20;;;;;;4915344;29;20177;-72
2021/06/20 09:15:30;;;;;;;19.50;10.57;;;30.00;86.50;;;;;;4915361;29;20420;-72
2021/06/20 09:18:01;;;;;;;19.60;9.90;;;30.10;86.60;;;;;;4914469;29;20487;-71
2021/06/20 09:20:41;;;;;;;22.07;9.63;;;30.10;85.20;;;;;;4919035;29;20415;-71
2021/06/20 09:23:12;;;;;;;21.93;9.40;;;30.20;85.00;;;;;;4915083;29;20503;-71
2021/06/20 09:25:43;;;;;;;17.23;9.57;;;30.10;84.80;;;;;;4899343;29;20480;-71
2021/06/20 09:28:10;;;;;;;19.23;9.53;;;30.00;84.60;;;;;;4896998;29;20420;-71
2021/06/20 09:30:47;;;;;;;15.53;10.00;;;29.90;85.40;;;;;;4914448;29;20444;-71
2021/06/20 09:33:13;;;;;;;20.23;10.17;;;29.90;85.40;;;;;;4914174;29;20418;-73
2021/06/20 09:35:55;;;;;;;16.77;10.17;;;29.80;85.10;;;;;;4897305;29;20417;-72
2021/06/20 09:38:26;;;;;;;17.30;9.83;;;29.80;86.10;;;;;;4895672;29;20464;-73
2021/06/20 09:41:01;;;;;;;16.57;10.57;;;29.80;86.40;;;;;;4913513;29;20432;-74
2021/06/20 09:43:27;;;;;;;24.87;11.10;;;29.80;86.40;;;;;;4914141;29;20507;-73
2021/06/20 09:45:53;;;;;;;24.90;10.23;;;29.80;86.30;;;;;;4913263;29;20448;-72
2021/06/20 09:48:30;;;;;;;20.57;10.83;;;29.90;86.70;;;;;;4896830;29;20421;-73
2021/06/20 09:51:11;;;;;;;23.03;10.23;;;30.00;86.80;;;;;;4895451;29;20496;-71
2021/06/20 09:53:38;;;;;;;16.10;9.37;;;30.00;86.20;;;;;;4901796;29;20447;-70
2021/06/20 09:56:13;;;;;;;16.57;10.50;;;30.00;86.50;;;;;;4919393;29;20460;-73
2021/06/20 09:58:44;;;;;;;26.70;10.70;;;30.10;86.70;;;;;;4908572;29;20455;-73
2021/06/20 10:01:19;;;;;;;17.47;10.90;;;30.20;86.60;;;;;;4915755;29;20475;-72
2021/06/20 10:03:45;;;;;;;19.00;10.47;;;30.30;86.10;;;;;;4923205;29;20515;-73
2021/06/20 10:06:13;;;;;;;24.50;11.40;;;30.40;85.60;;;;;;4933076;29;20455;-73
2021/06/20 10:08:40;;;;;;;19.47;9.73;;;30.50;85.40;;;;;;4915904;29;20404;-74
2021/06/20 10:11:06;;;;;;;19.70;10.70;;;30.60;84.90;;;;;;4933312;29;20439;-72
2021/06/20 10:13:31;;;;;;;17.83;9.70;;;30.70;85.90;;;;;;4916183;29;20416;-73
2021/06/20 10:16:16;;;;;;;18.83;10.00;;;30.80;84.60;;;;;;4915308;29;20188;-71
2021/06/20 10:18:51;;;;;;;15.57;9.43;;;31.00;85.60;;;;;;4907973;29;20560;-72
2021/06/20 10:21:37;;;;;;;15.23;9.50;;;31.10;84.40;;;;;;4884392;29;20566;-73
2021/06/20 10:24:15;;;;;;;22.10;10.73;;;31.10;83.90;;;;;;4893634;29;20611;-73
2021/06/20 10:26:59;;;;;;;22.50;11.43;;;31.10;84.30;;;;;;4918103;29;20446;-74
2021/06/20 10:29:30;;;;;;;24.20;9.50;;;31.00;81.70;;;;;;4926010;29;20450;-74
2021/06/20 10:31:58;;;;;;;20.07;8.93;;;31.00;83.40;;;;;;4924134;29;20466;-75
2021/06/20 10:34:32;;;;;;;21.27;9.33;;;30.90;82.70;;;;;;4913601;29;20420;-74
2021/06/20 10:37:05;;;;;;;20.37;9.20;;;30.90;83.90;;;;;;4887563;29;20844;-73
2021/06/20 10:39:31;;;;;;;16.53;9.23;;;30.90;83.20;;;;;;4908188;29;20467;-72
2021/06/20 10:42:11;;;;;;;16.90;8.40;;;31.00;82.10;;;;;;4911552;29;20591;-74
2021/06/20 10:44:54;;;;;;;17.53;9.07;;;31.00;82.80;;;;;;4904979;29;20437;-75
2021/06/20 10:47:32;;;;;;;17.63;9.07;;;30.90;83.60;;;;;;4901871;29;20436;-73
2021/06/20 10:50:01;;;;;;;20.23;9.30;;;30.90;82.50;;;;;;4920532;29;20568;-75
2021/06/20 10:52:28;;;;;;;21.23;9.00;;;31.00;83.70;;;;;;4914474;29;20469;-73
2021/06/20 10:55:13;;;;;;;16.50;8.60;;;31.10;83.80;;;;;;4904211;29;20495;-73
2021/06/20 10:57:49;;;;;;;20.20;10.00;;;31.10;83.70;;;;;;4897934;29;20447;-75
2021/06/20 11:00:30;;;;;;;21.83;8.90;;;31.10;83.20;;;;;;4908388;29;20444;-72
2021/06/20 11:03:28;;;;;;;18.77;8.93;;;31.10;83.70;;;;;;4916843;29;20409;-71
2021/06/20 11:05:54;;;;;;;13.77;8.50;;;31.10;83.90;;;;;;4897297;29;20428;-72
2021/06/20 11:08:36;;;;;;;20.43;9.97;;;31.00;84.60;;;;;;4914423;29;20513;-73
2021/06/20 11:11:18;;;;;;;25.13;8.87;;;31.00;83.90;;;;;;4914582;29;20272;-73
2021/06/20 11:13:59;;;;;;;16.43;8.53;;;31.00;84.50;;;;;;4901304;29;20452;-71
2021/06/20 11:16:31;;;;;;;22.50;9.00;;;31.00;83.80;;;;;;4916306;29;20411;-70
2021/06/20 11:19:16;;;;;;;16.00;8.83;;;31.00;84.60;;;;;;4900317;29;20507;-72
2021/06/20 11:22:03;;;;;;;16.07;9.30;;;30.90;83.70;;;;;;4905100;29;21042;-72
2021/06/20 11:24:49;;;;;;;14.57;9.10;;;30.90;84.40;;;;;;4916390;29;20491;-74
2021/06/20 11:27:21;;;;;;;19.87;8.60;;;31.00;84.40;;;;;;4933095;29;20393;-74
2021/06/20 11:29:53;;;;;;;42.70;13.13;;;31.00;83.50;;;;;;4914804;29;20442;-75
2021/06/20 11:32:20;;;;;;;17.60;8.40;;;31.00;84.00;;;;;;4929205;29;20439;-74
2021/06/20 11:34:48;;;;;;;15.00;8.57;;;31.20;83.80;;;;;;4905390;29;20500;-74
2021/06/20 11:37:25;;;;;;;15.60;9.33;;;31.30;84.40;;;;;;4896889;29;20493;-75
2021/06/20 11:39:56;;;;;;;14.43;8.10;;;31.40;84.00;;;;;;4924503;29;20452;-74
2021/06/20 11:42:25;;;;;;;14.00;8.10;;;31.50;82.70;;;;;;4900919;29;20448;-76
2021/06/20 11:45:12;;;;;;;14.67;8.60;;;31.50;81.90;;;;;;4908671;29;20417;-76
2021/06/20 11:47:49;;;;;;;18.30;8.70;;;31.60;83.10;;;;;;4899995;29;20479;-76
2021/06/20 11:50:19;;;;;;;16.23;7.83;;;31.60;82.20;;;;;;4895748;29;20456;-72
2021/06/20 11:52:50;;;;;;;21.27;9.17;;;31.80;82.50;;;;;;4912653;29;20417;-72
2021/06/20 11:55:19;;;;;;;20.13;8.93;;;32.00;81.60;;;;;;4911371;29;20404;-72
2021/06/20 11:57:46;;;;;;;16.20;9.00;;;32.10;82.60;;;;;;4894949;29;20421;-72
2021/06/20 12:00:20;;;;;;;14.47;7.83;;;32.30;81.80;;;;;;4911217;29;20529;-72
2021/06/20 12:02:57;;;;;;;16.83;7.23;;;32.40;81.70;;;;;;4895754;29;20466;-72
2021/06/20 12:05:23;;;;;;;14.10;7.40;;;32.50;80.00;;;;;;4898786;29;20932;-74
2021/06/20 12:07:52;;;;;;;12.70;6.70;;;32.40;80.40;;;;;;4900665;29;20467;-74
2021/06/20 12:10:19;;;;;;;16.67;7.97;;;32.40;79.80;;;;;;4900436;29;20565;-73
2021/06/20 12:12:45;;;;;;;13.83;7.30;;;32.40;78.90;;;;;;4900564;29;20412;-72
2021/06/20 12:15:12;;;;;;;11.60;6.80;;;32.40;79.70;;;;;;4900940;29;20834;-73
2021/06/20 12:17:39;;;;;;;12.40;7.03;;;32.40;80.50;;;;;;4900070;29;20854;-73
2021/06/20 12:20:06;;;;;;;13.20;7.67;;;32.30;79.90;;;;;;4899882;29;20425;-74
2021/06/20 12:22:46;;;;;;;13.47;7.47;;;32.30;79.70;;;;;;4899543;29;20987;-72
2021/06/20 12:25:12;;;;;;;14.27;7.90;;;32.30;79.30;;;;;;4916824;29;20423;-73
2021/06/20 12:27:39;;;;;;;15.03;7.40;;;32.20;79.20;;;;;;4917272;29;20424;-74
2021/06/20 12:30:17;;;;;;;16.37;6.97;;;32.10;78.40;;;;;;4900089;29;20420;-73
2021/06/20 12:32:46;;;;;;;12.90;7.60;;;32.00;78.70;;;;;;4924934;29;20923;-75
2021/06/20 12:35:26;;;;;;;16.47;7.40;;;31.90;78.40;;;;;;4907725;29;20436;-75
2021/06/20 12:37:54;;;;;;;14.07;7.00;;;31.90;78.70;;;;;;4898759;29;21043;-76
2021/06/20 12:40:24;;;;;;;18.43;6.93;;;32.00;80.20;;;;;;4898745;29;20932;-75
2021/06/20 12:42:53;;;;;;;11.33;6.90;;;32.10;80.30;;;;;;4899029;29;20438;-76